createdAt,value
2019-01-24T00:01:27.041Z,-2.40
2019-01-24T00:03:57.009Z,-2.50
2019-01-24T00:06:27.679Z,-2.50
2019-01-24T00:08:57.610Z,-2.40
2019-01-24T00:11:27.405Z,-2.50
2019-01-24T00:13:57.389Z,-2.60
2019-01-24T00:16:27.323Z,-2.60
2019-01-24T00:18:57.265Z,-2.70
2019-01-24T00:21:26.985Z,-2.60
2019-01-24T00:23:57.271Z,-2.60
2019-01-24T00:26:27.279Z,-2.60
2019-01-24T00:28:57.252Z,-2.50
2019-01-24T00:31:27.056Z,-2.40
2019-01-24T00:33:56.915Z,-2.50
2019-01-24T00:36:26.883Z,-2.50
2019-01-24T00:38:56.979Z,-2.70
2019-01-24T00:41:26.854Z,-2.80
2019-01-24T00:43:56.719Z,-2.80
2019-01-24T00:46:26.691Z,-2.90
2019-01-24T00:48:56.542Z,-2.90
2019-01-24T00:51:26.475Z,-2.80
2019-01-24T00:53:56.745Z,-2.80
2019-01-24T00:56:26.609Z,-2.80
2019-01-24T00:58:56.545Z,-2.80
2019-01-24T01:01:26.511Z,-2.70
2019-01-24T01:03:56.470Z,-2.80
2019-01-24T01:06:26.519Z,-2.90
2019-01-24T01:08:56.375Z,-3.00
2019-01-24T01:11:26.956Z,-3.00
2019-01-24T01:13:56.813Z,-3.00
2019-01-24T01:16:26.815Z,-3.00
2019-01-24T01:18:56.830Z,-3.00
2019-01-24T01:21:26.856Z,-2.90
2019-01-24T01:23:56.821Z,-2.90
2019-01-24T01:26:26.682Z,-2.90
2019-01-24T01:28:56.616Z,-2.90
2019-01-24T01:31:26.609Z,-2.80
2019-01-24T01:33:56.436Z,-2.80
2019-01-24T01:36:26.347Z,-3.00
2019-01-24T01:38:56.324Z,-3.00
2019-01-24T01:41:26.298Z,-3.00
2019-01-24T01:43:57.074Z,-3.10
2019-01-24T01:46:26.998Z,-3.20
2019-01-24T01:48:57.792Z,-3.20
2019-01-24T01:51:27.657Z,-3.20
2019-01-24T01:53:57.531Z,-3.20
2019-01-24T01:56:27.261Z,-3.20
2019-01-24T01:58:57.107Z,-3.10
2019-01-24T02:01:27.019Z,-3.10
2019-01-24T02:03:56.907Z,-3.10
2019-01-24T02:06:27.054Z,-3.00
2019-01-24T02:08:58.035Z,-3.00
2019-01-24T02:11:27.909Z,-3.00
2019-01-24T02:13:57.806Z,-2.90
2019-01-24T02:16:28.105Z,-2.90
2019-01-24T02:18:58.048Z,-3.00
2019-01-24T02:21:29.442Z,-3.10
2019-01-24T02:23:59.365Z,-3.10
2019-01-24T02:26:29.287Z,-3.60
2019-01-24T02:28:59.196Z,-2.80
2019-01-24T02:31:29.158Z,-2.80
2019-01-24T02:33:59.110Z,-2.90
2019-01-24T02:36:29.023Z,-3.10
2019-01-24T02:38:58.833Z,-3.10
2019-01-24T02:41:28.614Z,-3.20
2019-01-24T02:43:58.400Z,-3.20
2019-01-24T02:46:28.215Z,-3.20
2019-01-24T02:48:59.022Z,-3.10
2019-01-24T02:51:28.902Z,-3.10
2019-01-24T02:53:58.644Z,-3.20
2019-01-24T02:56:28.534Z,-3.10
2019-01-24T02:58:59.614Z,-2.90
2019-01-24T03:01:29.450Z,-2.90
2019-01-24T03:03:59.446Z,-3.00
2019-01-24T03:06:29.405Z,-3.00
2019-01-24T03:08:59.589Z,-3.20
2019-01-24T03:11:29.787Z,-3.30
2019-01-24T03:13:59.686Z,-3.40
2019-01-24T03:16:29.707Z,-3.50
2019-01-24T03:18:59.633Z,-3.40
2019-01-24T03:21:29.484Z,-3.40
2019-01-24T03:23:59.409Z,-3.40
2019-01-24T03:26:29.643Z,-3.40
2019-01-24T03:28:59.592Z,-3.10
2019-01-24T03:31:29.439Z,-3.10
2019-01-24T03:33:59.420Z,-3.20
2019-01-24T03:36:29.550Z,-3.10
2019-01-24T03:38:59.621Z,-3.20
2019-01-24T03:41:29.569Z,-3.30
2019-01-24T03:43:59.982Z,-3.20
2019-01-24T03:46:29.922Z,-3.20
2019-01-24T03:48:59.773Z,-3.10
2019-01-24T03:51:29.552Z,-3.00
2019-01-24T03:53:59.490Z,-3.10
2019-01-24T03:56:29.468Z,-3.10
2019-01-24T03:58:59.941Z,-3.00
2019-01-24T04:01:29.741Z,-3.00
2019-01-24T04:03:59.936Z,-3.00
2019-01-24T04:06:29.797Z,-3.00
2019-01-24T04:08:59.557Z,-2.90
2019-01-24T04:11:29.407Z,-2.80
2019-01-24T04:13:59.153Z,-3.00
2019-01-24T04:16:29.107Z,-3.00
2019-01-24T04:18:59.056Z,-2.90
2019-01-24T04:21:29.047Z,-2.90
2019-01-24T04:23:58.881Z,-2.80
2019-01-24T04:26:28.787Z,-2.90
2019-01-24T04:28:58.865Z,-3.00
2019-01-24T04:31:28.789Z,-3.10
2019-01-24T04:33:58.643Z,-3.20
2019-01-24T04:36:28.707Z,-3.20
2019-01-24T04:38:58.631Z,-3.20
2019-01-24T04:41:29.500Z,-3.20
2019-01-24T04:43:59.355Z,-3.20
2019-01-24T04:46:29.406Z,-3.20
2019-01-24T04:48:59.279Z,-3.20
2019-01-24T04:51:29.163Z,-3.10
2019-01-24T04:53:59.220Z,-3.10
2019-01-24T04:56:29.216Z,-3.10
2019-01-24T04:58:59.860Z,-3.00
2019-01-24T05:01:29.707Z,-3.10
2019-01-24T05:03:59.531Z,-3.10
2019-01-24T05:06:30.740Z,-3.10
2019-01-24T05:09:00.497Z,-3.00
2019-01-24T05:11:30.671Z,-3.10
2019-01-24T05:14:00.662Z,-3.00
2019-01-24T05:16:30.669Z,-3.00
2019-01-24T05:19:00.600Z,-2.80
2019-01-24T05:21:30.469Z,-2.80
2019-01-24T05:24:00.338Z,-3.00
2019-01-24T05:26:30.386Z,-3.10
2019-01-24T05:29:00.333Z,-3.10
2019-01-24T05:31:30.924Z,-3.10
2019-01-24T05:34:00.935Z,-3.20
2019-01-24T05:36:32.323Z,-3.10
2019-01-24T05:39:02.135Z,-3.00
2019-01-24T05:41:33.157Z,-3.00
2019-01-24T05:44:03.123Z,-3.00
2019-01-24T05:46:33.419Z,-3.00
2019-01-24T05:49:03.418Z,-2.30
2019-01-24T05:51:33.311Z,-3.00
2019-01-24T05:54:03.302Z,-2.90
2019-01-24T05:56:33.038Z,-2.90
2019-01-24T05:59:03.292Z,-3.00
2019-01-24T06:01:33.667Z,-3.00
2019-01-24T06:04:05.983Z,-2.80
2019-01-24T06:06:36.251Z,-2.80
2019-01-24T06:09:07.930Z,-2.80
2019-01-24T06:11:38.081Z,-2.80
2019-01-24T06:14:09.216Z,-2.90
2019-01-24T06:16:39.059Z,-2.90
2019-01-24T06:19:08.998Z,-2.80
2019-01-24T06:21:38.969Z,-2.90
2019-01-24T06:24:08.734Z,-2.80
2019-01-24T06:26:38.613Z,-2.80
2019-01-24T06:29:08.706Z,-2.70
2019-01-24T06:31:38.687Z,-2.70
2019-01-24T06:34:08.672Z,-2.70
2019-01-24T06:36:38.638Z,-2.80
2019-01-24T06:39:09.341Z,-2.80
2019-01-24T06:41:39.332Z,-2.80
2019-01-24T06:44:09.381Z,-1.60
2019-01-24T06:46:39.412Z,-2.80
2019-01-24T06:49:09.430Z,-2.80
2019-01-24T06:51:39.407Z,-2.90
2019-01-24T06:54:10.350Z,-2.80
2019-01-24T06:56:40.504Z,-2.80
2019-01-24T06:59:10.385Z,-2.70
2019-01-24T07:01:40.495Z,-2.70
2019-01-24T07:04:12.362Z,-2.80
2019-01-24T07:06:42.457Z,-2.80
2019-01-24T07:09:12.703Z,-2.90
2019-01-24T07:11:42.608Z,-2.90
2019-01-24T07:14:12.570Z,-2.80
2019-01-24T07:16:42.448Z,-2.80
2019-01-24T07:19:12.413Z,-3.00
2019-01-24T07:21:42.383Z,-3.00
2019-01-24T07:24:12.660Z,-2.90
2019-01-24T07:26:42.610Z,-2.90
2019-01-24T07:29:12.885Z,-2.90
2019-01-24T07:31:42.799Z,-2.90
2019-01-24T07:34:13.702Z,-2.70
2019-01-24T07:36:43.690Z,-2.80
2019-01-24T07:39:13.678Z,-2.70
2019-01-24T07:41:43.748Z,-2.60
2019-01-24T07:44:14.179Z,-2.70
2019-01-24T07:46:44.189Z,-2.80
2019-01-24T07:49:14.722Z,-2.80
2019-01-24T07:51:44.633Z,-2.70
2019-01-24T07:54:14.592Z,-2.70
2019-01-24T07:56:45.037Z,-2.80
2019-01-24T07:59:14.892Z,-2.80
2019-01-24T08:01:45.932Z,-2.80
2019-01-24T08:04:15.888Z,-2.70
2019-01-24T08:06:45.861Z,-2.70
2019-01-24T08:09:15.764Z,-2.70
2019-01-24T08:11:45.663Z,-2.70
2019-01-24T08:14:15.626Z,-2.80
2019-01-24T08:16:45.750Z,-2.80
2019-01-24T08:19:15.680Z,-2.80
2019-01-24T08:21:45.908Z,-2.70
2019-01-24T08:24:15.947Z,-2.50
2019-01-24T08:26:45.851Z,-2.60
2019-01-24T08:29:17.534Z,-2.60
2019-01-24T08:31:47.505Z,-2.60
2019-01-24T08:34:18.529Z,-2.60
2019-01-24T08:36:48.524Z,-2.60
2019-01-24T08:39:18.830Z,-2.60
2019-01-24T08:41:48.593Z,-2.60
2019-01-24T08:44:18.435Z,-2.70
2019-01-24T08:46:49.365Z,-2.70
2019-01-24T08:49:19.350Z,-2.50
2019-01-24T08:51:49.293Z,-2.50
2019-01-24T08:54:19.330Z,-2.60
2019-01-24T08:56:49.151Z,-2.60
2019-01-24T08:59:19.399Z,-2.60
2019-01-24T09:01:49.453Z,-2.60
2019-01-24T09:04:19.459Z,-2.60
2019-01-24T09:06:49.372Z,-2.50
2019-01-24T09:09:19.382Z,-2.50
2019-01-24T09:11:53.500Z,-2.50
2019-01-24T09:14:23.321Z,-2.40
2019-01-24T09:16:53.085Z,-2.50
2019-01-24T09:19:24.138Z,-2.40
2019-01-24T09:21:54.138Z,-2.40
2019-01-24T09:24:24.172Z,-2.50
2019-01-24T09:26:54.147Z,-2.50
2019-01-24T09:29:24.082Z,-2.50
2019-01-24T09:31:53.841Z,-2.50
2019-01-24T09:34:24.276Z,-2.60
2019-01-24T09:36:54.151Z,-2.50
2019-01-24T09:39:24.786Z,-2.40
2019-01-24T09:41:54.762Z,-2.30
2019-01-24T09:44:24.745Z,-2.40
2019-01-24T09:46:54.912Z,-2.30
2019-01-24T09:49:24.899Z,-2.30
2019-01-24T09:51:54.859Z,-2.30
2019-01-24T09:54:24.730Z,-2.30
2019-01-24T09:56:54.705Z,-2.20
2019-01-24T09:59:24.653Z,-2.10
2019-01-24T10:01:54.574Z,-2.10
2019-01-24T10:04:24.435Z,-2.10
2019-01-24T10:06:54.505Z,-2.10
2019-01-24T10:09:24.362Z,-2.10
2019-01-24T10:11:54.190Z,-2.10
2019-01-24T10:14:24.162Z,-2.10
2019-01-24T10:16:54.088Z,-2.20
2019-01-24T10:19:24.220Z,-2.20
2019-01-24T10:21:55.005Z,-2.20
2019-01-24T10:24:24.953Z,-2.10
2019-01-24T10:26:55.011Z,-2.00
2019-01-24T10:29:24.936Z,-2.00
2019-01-24T10:31:54.834Z,-1.90
2019-01-24T10:34:25.032Z,-2.10
2019-01-24T10:36:54.997Z,-2.00
2019-01-24T10:39:25.152Z,-1.80
2019-01-24T10:41:55.162Z,-1.70
2019-01-24T10:44:25.378Z,-1.70
2019-01-24T10:46:55.284Z,-1.70
2019-01-24T10:49:25.351Z,-1.60
2019-01-24T10:51:55.168Z,-1.70
2019-01-24T10:54:25.058Z,-1.60
2019-01-24T10:56:55.101Z,-1.30
2019-01-24T10:59:25.075Z,-1.40
2019-01-24T11:01:55.212Z,-1.30
2019-01-24T11:04:25.242Z,-1.30
2019-01-24T11:06:55.129Z,-1.40
2019-01-24T11:09:25.335Z,-1.20
2019-01-24T11:11:55.750Z,-1.30
2019-01-24T11:14:25.662Z,-1.30
2019-01-24T11:16:56.005Z,-1.40
2019-01-24T11:19:26.030Z,-1.40
2019-01-24T11:21:55.970Z,-1.30
2019-01-24T11:24:26.166Z,-1.30
2019-01-24T11:26:56.648Z,-1.50
2019-01-24T11:29:26.578Z,-1.50
2019-01-24T11:31:56.417Z,-1.50
2019-01-24T11:34:26.412Z,-1.60
2019-01-24T11:36:57.486Z,-1.60
2019-01-24T11:39:27.363Z,-1.60
2019-01-24T11:41:57.233Z,-1.60
2019-01-24T11:44:27.178Z,-1.60
2019-01-24T11:46:57.018Z,-1.60
2019-01-24T11:49:27.263Z,-1.70
2019-01-24T11:51:57.008Z,-1.50
2019-01-24T11:54:27.059Z,-1.40
2019-01-24T11:56:57.062Z,-1.40
2019-01-24T11:59:27.184Z,-1.50
2019-01-24T12:01:57.045Z,-1.50
2019-01-24T12:04:27.244Z,-1.60
2019-01-24T12:07:03.886Z,-1.50
2019-01-24T12:09:28.700Z,-1.50
2019-01-24T12:11:58.976Z,-1.40
2019-01-24T12:14:28.981Z,-1.40
2019-01-24T12:16:59.059Z,-1.40
2019-01-24T12:19:28.947Z,-1.40
2019-01-24T12:21:58.849Z,-1.30
2019-01-24T12:24:28.818Z,-1.30
2019-01-24T12:26:58.719Z,-1.30
2019-01-24T12:29:28.662Z,-1.30
2019-01-24T12:31:58.724Z,-1.10
2019-01-24T12:34:28.900Z,-1.00
2019-01-24T12:36:58.841Z,-1.00
2019-01-24T12:39:28.959Z,-1.00
2019-01-24T12:41:58.867Z,-1.00
2019-01-24T12:44:28.842Z,-1.10
2019-01-24T12:46:58.983Z,-1.10
2019-01-24T12:49:28.989Z,-1.00
2019-01-24T12:51:58.923Z,-1.10
2019-01-24T12:54:29.018Z,-1.00
2019-01-24T12:56:59.624Z,-1.10
2019-01-24T12:59:29.605Z,-1.10
2019-01-24T13:01:59.534Z,-1.20
2019-01-24T13:04:29.635Z,-1.20
2019-01-24T13:06:59.698Z,-1.10
2019-01-24T13:09:29.529Z,-1.20
2019-01-24T13:11:59.512Z,-1.30
2019-01-24T13:14:29.536Z,-1.20
2019-01-24T13:16:59.463Z,-1.10
2019-01-24T13:19:29.366Z,-1.10
2019-01-24T13:21:59.377Z,-1.10
2019-01-24T13:24:29.435Z,-1.10
2019-01-24T13:26:59.363Z,-1.20
2019-01-24T13:29:29.343Z,-1.10
2019-01-24T13:31:59.312Z,-1.00
2019-01-24T13:34:29.328Z,-0.90
2019-01-24T13:36:59.876Z,-0.90
2019-01-24T13:39:29.790Z,-0.80
2019-01-24T13:41:59.843Z,-0.90
2019-01-24T13:44:30.175Z,-0.80
2019-01-24T13:47:00.224Z,-0.90
2019-01-24T13:49:30.219Z,-1.00
2019-01-24T13:52:00.302Z,-1.10
2019-01-24T13:54:30.149Z,-1.20
2019-01-24T13:57:00.233Z,-1.10
2019-01-24T13:59:36.286Z,-1.10
2019-01-24T14:02:07.126Z,-1.20
2019-01-24T14:04:42.360Z,-1.40
2019-01-24T14:07:13.406Z,-1.30
2019-01-24T14:09:43.512Z,-1.30
2019-01-24T14:12:13.374Z,-1.30
2019-01-24T14:14:43.618Z,-1.40
2019-01-24T14:17:13.546Z,-1.50
2019-01-24T14:19:44.517Z,-1.50
2019-01-24T14:22:14.813Z,-1.50
2019-01-24T14:24:45.150Z,-1.50
2019-01-24T14:27:15.350Z,-1.60
2019-01-24T14:29:45.366Z,-1.50
2019-01-24T14:32:16.353Z,-1.50
2019-01-24T14:34:46.417Z,-1.50
2019-01-24T14:37:16.296Z,-1.50
2019-01-24T14:39:46.156Z,-1.50
2019-01-24T14:42:16.194Z,-1.40
2019-01-24T14:44:46.077Z,-1.40
2019-01-24T14:47:15.953Z,-1.50
2019-01-24T14:49:46.092Z,-1.50
2019-01-24T14:52:16.051Z,-1.60
2019-01-24T14:54:46.143Z,-1.60
2019-01-24T14:57:18.220Z,-1.60
2019-01-24T14:59:48.262Z,-1.70
2019-01-24T15:02:19.006Z,-1.60
2019-01-24T15:04:48.949Z,-1.50
2019-01-24T15:07:18.999Z,-1.60
2019-01-24T15:09:49.010Z,-1.60
2019-01-24T15:12:18.922Z,-1.40
2019-01-24T15:14:48.824Z,-1.30
2019-01-24T15:17:20.884Z,-1.40
2019-01-24T15:19:50.842Z,-1.40
2019-01-24T15:22:23.030Z,-1.50
2019-01-24T15:24:52.850Z,-1.60
2019-01-24T15:27:22.821Z,-1.50
2019-01-24T15:29:52.662Z,-1.40
2019-01-24T15:32:22.519Z,-1.40
2019-01-24T15:34:52.313Z,-1.50
2019-01-24T15:37:22.554Z,-1.60
2019-01-24T15:39:53.269Z,-1.60
2019-01-24T15:42:23.230Z,-1.60
2019-01-24T15:44:53.865Z,-1.70
2019-01-24T15:47:23.663Z,-1.70
2019-01-24T15:49:53.580Z,-1.60
2019-01-24T15:52:23.720Z,-1.60
2019-01-24T15:54:53.759Z,-1.30
2019-01-24T15:57:23.687Z,-1.60
2019-01-24T15:59:53.619Z,-1.60
2019-01-24T16:02:24.570Z,-1.60
2019-01-24T16:04:54.509Z,-1.50
2019-01-24T16:07:24.556Z,-1.50
2019-01-24T16:09:54.526Z,-1.50
2019-01-24T16:12:24.536Z,-1.50
2019-01-24T16:14:54.789Z,-1.60
2019-01-24T16:17:24.968Z,-1.60
2019-01-24T16:19:54.954Z,-1.60
2019-01-24T16:22:25.807Z,-1.70
2019-01-24T16:24:55.550Z,-1.70
2019-01-24T16:27:38.695Z,-1.70
2019-01-24T16:30:11.751Z,-1.70
2019-01-24T16:32:49.810Z,-1.70
2019-01-24T16:35:20.461Z,-1.80
2019-01-24T16:37:50.360Z,-1.80
2019-01-24T16:40:21.185Z,-1.70
2019-01-24T16:43:09.180Z,-1.70
2019-01-24T16:45:38.983Z,-1.70
2019-01-24T16:48:08.983Z,-1.60
2019-01-24T16:50:38.995Z,-1.60
2019-01-24T16:53:08.903Z,-1.60
2019-01-24T16:55:39.020Z,-1.70
2019-01-24T16:58:09.175Z,-1.70
2019-01-24T17:00:52.145Z,-1.70
2019-01-24T17:03:22.368Z,-1.60
2019-01-24T17:05:52.319Z,-1.60
2019-01-24T17:08:22.364Z,-1.70
2019-01-24T17:10:53.521Z,-1.60
2019-01-24T17:13:23.490Z,-1.70
2019-01-24T17:15:53.515Z,-1.60
2019-01-24T17:18:23.577Z,-1.60
2019-01-24T17:20:53.775Z,-1.70
2019-01-24T17:23:24.254Z,-1.70
2019-01-24T17:25:54.040Z,-1.70
2019-01-24T17:28:24.000Z,-1.70
2019-01-24T17:30:53.941Z,-1.70
2019-01-24T17:33:24.893Z,-1.60
2019-01-24T17:35:55.109Z,-1.60
2019-01-24T17:38:30.263Z,-1.60
2019-01-24T17:41:00.584Z,-1.60
2019-01-24T17:43:30.550Z,-1.60
2019-01-24T17:46:09.935Z,-1.60
2019-01-24T17:48:40.064Z,-1.70
2019-01-24T17:51:11.347Z,-1.80
2019-01-24T17:53:45.720Z,-1.70
2019-01-24T17:56:20.347Z,-1.70
2019-01-24T17:58:50.216Z,-1.80
2019-01-24T18:01:20.330Z,-1.80
2019-01-24T18:03:51.102Z,-1.80
2019-01-24T18:06:21.514Z,-1.80
2019-01-24T18:08:51.624Z,-1.80
2019-01-24T18:11:23.236Z,-1.80
2019-01-24T18:13:53.176Z,-1.70
2019-01-24T18:16:23.126Z,-1.70
2019-01-24T18:18:53.025Z,-1.60
2019-01-24T18:21:23.439Z,-1.70
2019-01-24T18:23:53.277Z,-1.70
2019-01-24T18:26:24.357Z,-1.80
2019-01-24T18:28:55.804Z,-1.60
2019-01-24T18:31:25.765Z,-1.50
2019-01-24T18:33:55.661Z,-1.40
2019-01-24T18:36:25.504Z,-1.40
2019-01-24T18:38:55.637Z,-1.40
2019-01-24T18:41:26.537Z,-1.40
2019-01-24T18:43:58.662Z,-1.40
2019-01-24T18:46:29.614Z,-1.40
2019-01-24T18:48:59.516Z,-1.50
2019-01-24T18:51:29.502Z,-1.50
2019-01-24T18:53:59.516Z,-1.60
2019-01-24T18:56:29.581Z,-1.60
2019-01-24T18:59:00.413Z,-1.70
2019-01-24T19:01:32.523Z,-1.60
2019-01-24T19:04:03.516Z,-1.60
2019-01-24T19:06:33.531Z,-1.60
2019-01-24T19:09:08.165Z,-1.50
2019-01-24T19:11:37.917Z,-1.60
2019-01-24T19:14:09.555Z,-1.50
2019-01-24T19:16:39.726Z,-1.60
2019-01-24T19:19:09.795Z,-1.60
2019-01-24T19:21:39.858Z,-1.50
2019-01-24T19:24:09.984Z,-1.60
2019-01-24T19:26:41.955Z,-1.50
2019-01-24T19:29:11.960Z,-1.50
2019-01-24T19:31:41.850Z,-1.50
2019-01-24T19:34:11.686Z,-1.50
2019-01-24T19:36:41.910Z,-1.60
2019-01-24T19:39:12.088Z,-1.60
2019-01-24T19:41:42.107Z,-1.60
2019-01-24T19:44:15.770Z,-1.60
2019-01-24T19:46:43.882Z,-1.50
2019-01-24T19:49:13.746Z,-1.50
2019-01-24T19:51:43.919Z,-1.60
2019-01-24T19:54:15.064Z,-1.60
2019-01-24T19:56:45.185Z,-1.50
2019-01-24T19:59:15.303Z,-1.50
2019-01-24T20:01:45.868Z,-1.50
2019-01-24T20:04:16.012Z,-1.60
2019-01-24T20:06:49.249Z,-1.60
2019-01-24T20:09:19.576Z,-1.60
2019-01-24T20:11:49.693Z,-1.60
2019-01-24T20:14:20.300Z,-1.70
2019-01-24T20:16:53.664Z,-1.60
2019-01-24T20:19:25.726Z,-1.50
2019-01-24T20:21:56.335Z,-1.60
2019-01-24T20:24:27.373Z,-1.60
2019-01-24T20:26:57.996Z,-1.60
2019-01-24T20:29:28.097Z,-1.70
2019-01-24T20:31:58.241Z,-1.70
2019-01-24T20:34:29.468Z,-1.60
2019-01-24T20:37:00.742Z,-1.60
2019-01-24T20:39:31.726Z,-1.60
2019-01-24T20:42:02.550Z,-1.70
2019-01-24T20:44:33.760Z,-1.70
2019-01-24T20:47:03.782Z,-1.60
2019-01-24T20:49:35.037Z,-1.60
2019-01-24T20:52:06.018Z,-1.60
2019-01-24T20:54:37.093Z,-1.70
2019-01-24T20:57:07.418Z,-1.70
2019-01-24T20:59:37.435Z,-1.70
2019-01-24T21:02:10.835Z,-1.60
2019-01-24T21:04:40.933Z,-1.60
2019-01-24T21:07:11.812Z,-1.70
2019-01-24T21:09:47.676Z,-1.60
2019-01-24T21:12:17.687Z,-1.60
2019-01-24T21:14:47.859Z,-1.70
2019-01-24T21:17:18.057Z,-1.70
2019-01-24T21:19:48.288Z,-1.80
2019-01-24T21:22:21.360Z,-1.90
2019-01-24T21:24:51.470Z,-2.00
2019-01-24T21:27:22.020Z,-2.00
2019-01-24T21:29:52.200Z,-1.90
2019-01-24T21:32:22.171Z,-1.90
2019-01-24T21:34:53.224Z,-1.90
2019-01-24T21:37:23.260Z,-1.90
2019-01-24T21:39:53.243Z,-2.10
2019-01-24T21:42:23.216Z,-1.90
2019-01-24T21:44:53.343Z,-1.90
2019-01-24T21:47:24.428Z,-2.00
2019-01-24T21:49:54.432Z,-2.00
2019-01-24T21:52:24.409Z,-2.00
2019-01-24T21:54:54.464Z,-1.90
2019-01-24T21:57:25.794Z,-1.90
2019-01-24T21:59:55.876Z,-1.80
2019-01-24T22:02:25.918Z,-1.80
2019-01-24T22:04:55.908Z,-1.80
2019-01-24T22:07:25.955Z,-1.90
2019-01-24T22:09:56.040Z,-1.30
2019-01-24T22:12:26.033Z,-2.00
2019-01-24T22:14:56.807Z,-1.80
2019-01-24T22:17:27.261Z,-1.80
2019-01-24T22:19:57.369Z,-1.80
2019-01-24T22:22:27.496Z,-1.90
2019-01-24T22:24:59.275Z,-1.90
2019-01-24T22:27:29.453Z,-1.90
2019-01-24T22:30:02.716Z,-1.80
2019-01-24T22:32:38.046Z,-1.80
2019-01-24T22:35:11.939Z,-1.80
2019-01-24T22:37:44.023Z,-1.80
2019-01-24T22:40:17.071Z,-1.80
2019-01-24T22:42:50.528Z,-1.80
2019-01-24T22:45:31.498Z,-1.80
2019-01-24T22:48:02.490Z,-1.80
2019-01-24T22:50:42.346Z,-1.70
2019-01-24T22:53:28.673Z,-1.80
2019-01-24T22:56:00.680Z,-1.80
2019-01-24T22:58:32.859Z,-1.80
2019-01-24T23:01:28.025Z,-1.80
2019-01-24T23:04:08.527Z,-1.80
2019-01-24T23:06:39.062Z,-1.90
2019-01-24T23:09:13.078Z,-1.90
2019-01-24T23:11:43.416Z,-1.90
2019-01-24T23:14:15.282Z,-2.00
2019-01-24T23:16:47.113Z,-1.90
2019-01-24T23:19:16.999Z,-1.90
2019-01-24T23:22:00.229Z,-1.90
2019-01-24T23:24:30.504Z,-1.90
2019-01-24T23:27:02.825Z,-1.90
2019-01-24T23:29:32.647Z,-2.00
2019-01-24T23:32:02.554Z,-2.00
2019-01-24T23:34:32.546Z,-2.00
2019-01-24T23:37:03.044Z,-2.00
2019-01-24T23:39:33.029Z,-2.00
2019-01-24T23:42:02.975Z,-2.10
2019-01-24T23:44:32.846Z,-2.10
2019-01-24T23:47:02.989Z,-2.10
2019-01-24T23:49:32.853Z,-2.10
2019-01-24T23:52:02.770Z,-2.10
2019-01-24T23:54:33.601Z,-2.10
2019-01-24T23:57:03.848Z,-2.20
2019-01-24T23:59:33.723Z,-2.20
